Time;durP1;ratioP1;P1;durP2;ratioP2;P2;SDS_P1;SDS_P2;PMS_P1;PMS_P2;Temp;Humidity;BMP_temperature;BMP_pressure;BME280_temperature;BME280_humidity;BME280_pressure;Samples;Min_cycle;Max_cycle;Signal;HPM_P1;HPM_P2
2022/12/17 13:06:36;;;;;;;0.10;0.10;;;;;;;14.77;58.42;100976.44;7363972;19;20018;-56
2022/12/17 13:09:27;;;;;;;0.00;0.00;;;;;;;14.65;58.73;100976.00;7360739;19;20056;-55
2022/12/17 13:11:58;;;;;;;0.10;0.10;;;;;;;14.45;56.53;100974.94;7258064;19;2004406;-57
2022/12/17 13:14:46;;;;;;;0.10;0.10;;;;;;;14.28;58.06;100972.84;7360026;19;20073;-56
2022/12/17 13:17:14;;;;;;;0.10;0.10;;;;;;;14.14;56.11;100988.25;7359899;19;20023;-57
2022/12/17 13:19:46;;;;;;;0.00;0.00;;;;;;;14.09;57.10;100992.78;7366204;19;20006;-57
2022/12/17 13:22:11;;;;;;;0.10;0.10;;;;;;;14.06;57.06;100987.63;7366009;19;20047;-56
2022/12/17 13:24:37;;;;;;;0.10;0.10;;;;;;;14.11;56.59;100985.69;7368028;19;20022;-57
2022/12/17 13:27:03;;;;;;;0.10;0.10;;;;;;;14.17;56.30;100985.50;7368314;19;20110;-55
2022/12/17 13:29:36;;;;;;;0.10;0.10;;;;;;;14.28;56.65;100978.09;7370523;19;20011;-57
2022/12/17 13:32:27;;;;;;;0.10;0.10;;;;;;;14.33;58.23;100974.47;7366445;19;20106;-56
2022/12/17 13:35:04;;;;;;;0.10;0.10;;;;;;;14.31;57.75;100965.78;7266660;19;2004432;-57
2022/12/17 13:37:57;;;;;;;0.05;0.05;;;;;;;14.25;57.34;100972.97;7365051;19;20074;-57
2022/12/17 13:41:02;;;;;;;0.00;0.00;;;;;;;14.23;57.26;100969.53;7265123;19;2004540;-57
2022/12/17 13:43:32;;;;;;;0.00;0.00;;;;;;;14.16;54.92;100978.53;7266099;19;2005771;-56
2022/12/17 13:45:58;;;;;;;0.10;0.10;;;;;;;14.12;54.78;100987.41;7363647;19;20015;-57
2022/12/17 13:48:27;;;;;;;0.00;0.00;;;;;;;14.10;55.19;100983.13;7368381;19;20351;-56
2022/12/17 13:51:01;;;;;;;0.05;0.05;;;;;;;14.13;55.77;100975.13;7365675;19;20549;-57
2022/12/17 13:53:29;;;;;;;0.10;0.10;;;;;;;14.12;54.41;100962.91;7366216;19;20589;-57
2022/12/17 13:55:56;;;;;;;0.00;0.00;;;;;;;14.16;54.79;100964.53;7365642;19;20992;-56
2022/12/17 13:58:27;;;;;;;0.10;0.10;;;;;;;14.16;55.79;100962.78;7367819;19;21028;-58
2022/12/17 14:01:11;;;;;;;0.08;0.08;;;;;;;14.15;56.63;100955.81;7365968;19;20010;-57
2022/12/17 14:03:37;;;;;;;0.10;0.10;;;;;;;13.95;55.28;100931.97;7356238;19;20021;-57
2022/12/17 14:06:07;;;;;;;0.10;0.10;;;;;;;13.97;55.89;100952.00;7365671;19;20010;-56
2022/12/17 14:08:33;;;;;;;0.10;0.10;;;;;;;13.86;54.96;100958.53;7365520;19;20584;-56
2022/12/17 14:13:47;;;;;;;0.10;0.10;;;;;;;13.69;54.79;100952.06;7359143;19;20038;-56
2022/12/17 14:16:17;;;;;;;0.00;0.00;;;;;;;13.59;55.63;100945.38;7363678;19;20025;-57
2022/12/17 14:18:46;;;;;;;0.10;0.10;;;;;;;13.65;55.10;100954.81;7364736;19;20038;-57
2022/12/17 14:21:12;;;;;;;0.10;0.10;;;;;;;13.32;55.00;100919.97;7364661;19;20019;-57
2022/12/17 14:23:40;;;;;;;0.10;0.10;;;;;;;13.51;55.49;100960.47;7363851;19;20020;-57
2022/12/17 14:26:09;;;;;;;0.10;0.10;;;;;;;13.45;55.96;100960.69;7366126;19;20012;-57
2022/12/17 14:28:46;;;;;;;0.10;0.10;;;;;;;13.33;55.50;100968.91;7364852;19;20034;-57
2022/12/17 14:31:27;;;;;;;0.00;0.00;;;;;;;13.17;54.81;100948.34;7357139;19;20695;-56
2022/12/17 14:34:06;;;;;;;0.00;0.00;;;;;;;13.07;55.82;100949.50;7364949;19;20413;-56
2022/12/17 14:36:34;;;;;;;0.00;0.00;;;;;;;12.93;56.07;100946.44;7364640;19;20002;-56
2022/12/17 14:39:03;;;;;;;0.10;0.10;;;;;;;12.80;55.55;100947.69;7363019;19;20017;-56
2022/12/17 14:44:24;;;;;;;0.00;0.00;;;;;;;12.39;56.84;100940.03;7363982;19;20020;-55
2022/12/17 14:46:54;;;;;;;0.08;0.08;;;;;;;12.31;57.00;100943.75;7356144;19;20042;-57
2022/12/17 14:49:20;;;;;;;0.00;0.00;;;;;;;12.16;56.77;100947.63;7350812;19;20014;-56
2022/12/17 14:51:47;;;;;;;0.10;0.10;;;;;;;12.02;56.96;100952.38;7360457;19;20037;-57
2022/12/17 14:54:13;;;;;;;0.00;0.00;;;;;;;11.88;57.27;100950.06;7363669;19;20469;-57
2022/12/17 14:56:40;;;;;;;0.00;0.00;;;;;;;11.65;56.31;100933.13;7363953;19;20380;-56
2022/12/17 14:59:29;;;;;;;0.00;0.00;;;;;;;11.60;57.29;100945.44;7365312;19;20026;-57
2022/12/17 15:01:55;;;;;;;0.00;0.00;;;;;;;11.36;57.14;100941.66;7364547;19;20085;-57
2022/12/17 15:04:21;;;;;;;0.00;0.00;;;;;;;11.29;57.92;100947.03;7363078;19;20094;-57
2022/12/17 15:06:48;;;;;;;0.00;0.00;;;;;;;11.05;58.06;100930.09;7362057;19;20427;-56
2022/12/17 15:09:13;;;;;;;0.00;0.00;;;;;;;11.06;58.62;100945.78;7364754;19;20079;-55
2022/12/17 15:11:39;;;;;;;0.05;0.05;;;;;;;10.96;58.75;100946.84;7351309;19;20538;-56
2022/12/17 15:14:04;;;;;;;0.00;0.00;;;;;;;10.83;58.84;100940.16;7362897;19;20245;-57
2022/12/17 15:16:30;;;;;;;0.03;0.03;;;;;;;10.79;58.53;100946.31;7364455;19;20018;-56
2022/12/17 15:18:56;;;;;;;0.00;0.00;;;;;;;10.69;58.26;100945.63;7364130;19;20033;-57
2022/12/17 15:21:23;;;;;;;0.00;0.00;;;;;;;10.60;59.22;100944.06;7364538;19;20939;-57
2022/12/17 15:23:49;;;;;;;0.00;0.00;;;;;;;10.38;58.80;100932.28;7359355;19;20017;-57
2022/12/17 15:26:14;;;;;;;0.03;0.03;;;;;;;10.40;59.18;100959.25;7357943;19;19999;-57
2022/12/17 15:28:41;;;;;;;0.10;0.10;;;;;;;10.19;58.89;100930.84;7363752;19;20038;-58
2022/12/17 15:31:09;;;;;;;0.00;0.00;;;;;;;10.22;58.70;100946.47;7357961;19;20007;-57
2022/12/17 15:33:35;;;;;;;0.00;0.00;;;;;;;10.10;59.42;100951.03;7358476;19;20421;-58
2022/12/17 15:36:00;;;;;;;0.00;0.00;;;;;;;10.00;59.41;100949.44;7357074;19;20063;-57
2022/12/17 15:38:25;;;;;;;0.05;0.05;;;;;;;9.83;60.00;100933.19;7357425;19;20086;-58
2022/12/17 15:40:51;;;;;;;0.10;0.10;;;;;;;9.83;60.05;100946.22;7356263;19;20054;-58
2022/12/17 15:43:16;;;;;;;0.00;0.00;;;;;;;9.68;60.13;100933.44;7358121;19;20875;-58
2022/12/17 15:45:44;;;;;;;0.00;0.00;;;;;;;9.70;60.13;100947.31;7355674;19;20086;-57
2022/12/17 15:48:19;;;;;;;0.00;0.00;;;;;;;9.62;60.11;100948.28;7358464;19;20007;-57
2022/12/17 15:50:46;;;;;;;0.00;0.00;;;;;;;9.52;60.26;100949.31;7355422;19;20021;-56
2022/12/17 15:53:12;;;;;;;0.00;0.00;;;;;;;9.43;60.39;100946.84;7358562;19;20046;-57
2022/12/17 15:55:38;;;;;;;0.00;0.00;;;;;;;9.36;59.95;100953.00;7356225;19;20018;-59
2022/12/17 15:58:04;;;;;;;0.00;0.00;;;;;;;9.13;59.93;100926.41;7357151;19;20021;-58
2022/12/17 16:00:30;;;;;;;0.00;0.00;;;;;;;9.20;60.50;100954.09;7352715;19;20035;-58
2022/12/17 16:02:55;;;;;;;0.00;0.00;;;;;;;9.06;60.43;100942.09;7358031;19;20141;-57
2022/12/17 16:05:21;;;;;;;0.00;0.00;;;;;;;9.02;60.81;100952.56;7354162;19;20018;-58
2022/12/17 16:07:47;;;;;;;0.10;0.10;;;;;;;8.93;60.88;100958.78;7358059;19;20034;-56
2022/12/17 16:10:13;;;;;;;0.00;0.00;;;;;;;8.86;60.36;100961.47;7357808;19;20036;-57
2022/12/17 16:12:39;;;;;;;0.00;0.00;;;;;;;8.77;60.20;100952.03;7362778;19;20018;-58
2022/12/17 16:15:06;;;;;;;0.00;0.00;;;;;;;8.61;61.23;100946.09;7359566;19;20751;-57
2022/12/17 16:17:32;;;;;;;0.00;0.00;;;;;;;8.64;60.86;100968.66;7363248;19;20018;-58
2022/12/17 16:19:57;;;;;;;0.00;0.00;;;;;;;8.58;61.32;100973.03;7362077;19;20013;-56
2022/12/17 16:22:27;;;;;;;0.00;0.00;;;;;;;8.47;61.14;100974.91;7362330;19;20026;-58
2022/12/17 16:24:52;;;;;;;0.00;0.00;;;;;;;8.43;61.56;100983.59;7363519;19;20026;-57
2022/12/17 16:27:18;;;;;;;0.00;0.00;;;;;;;8.33;61.58;100972.38;7363997;19;20025;-58
2022/12/17 16:29:46;;;;;;;0.00;0.00;;;;;;;8.16;61.57;100953.47;7362664;19;20484;-57
2022/12/17 16:32:12;;;;;;;0.00;0.00;;;;;;;8.16;61.92;100973.41;7361093;19;20002;-58
2022/12/17 16:34:37;;;;;;;0.00;0.00;;;;;;;8.02;61.59;100976.13;7358331;19;20770;-58
2022/12/17 16:37:02;;;;;;;0.00;0.00;;;;;;;8.03;61.41;100991.72;7361050;19;20006;-58
2022/12/17 16:39:28;;;;;;;0.10;0.10;;;;;;;7.97;61.15;100986.56;7361929;19;20006;-58
2022/12/17 16:41:53;;;;;;;0.00;0.00;;;;;;;7.84;60.82;100971.91;7363653;19;20007;-57
2022/12/17 16:44:19;;;;;;;0.00;0.00;;;;;;;7.84;60.71;100981.47;7355585;19;20023;-58
2022/12/17 16:46:47;;;;;;;0.00;0.00;;;;;;;7.76;60.68;100978.94;7357337;19;20006;-58
2022/12/17 16:49:15;;;;;;;0.00;0.00;;;;;;;7.52;60.23;100954.81;7358508;19;20018;-57
2022/12/17 16:51:41;;;;;;;0.00;0.00;;;;;;;7.48;60.19;100954.81;7356378;19;20843;-58
2022/12/17 16:54:12;;;;;;;0.00;0.00;;;;;;;7.54;60.10;100983.38;7358678;19;20127;-56
2022/12/17 16:56:38;;;;;;;0.00;0.00;;;;;;;7.46;60.29;100980.84;7361894;19;20036;-58
2022/12/17 16:59:04;;;;;;;0.00;0.00;;;;;;;7.39;60.08;100984.31;7359706;19;21505;-57
2022/12/17 17:01:30;;;;;;;0.00;0.00;;;;;;;7.32;60.89;100985.22;7355748;19;20026;-57
2022/12/17 17:03:56;;;;;;;0.10;0.10;;;;;;;7.25;60.84;100987.00;7362841;19;20014;-57
2022/12/17 17:06:23;;;;;;;0.00;0.00;;;;;;;7.17;60.81;100985.31;7360124;19;20057;-58
2022/12/17 17:08:49;;;;;;;0.00;0.00;;;;;;;7.10;60.60;100994.84;7362664;19;20010;-58
2022/12/17 17:11:20;;;;;;;0.00;0.00;;;;;;;7.03;60.74;100988.78;7361542;19;20037;-58
2022/12/17 17:13:51;;;;;;;0.00;0.00;;;;;;;6.82;61.03;100965.50;7358187;19;20010;-59
2022/12/17 17:16:18;;;;;;;0.00;0.00;;;;;;;6.88;61.12;100991.44;7359982;19;20481;-58
2022/12/17 17:18:44;;;;;;;0.00;0.00;;;;;;;6.79;61.15;100995.78;7360792;19;20022;-58
2022/12/17 17:21:18;;;;;;;0.00;0.00;;;;;;;6.78;61.58;101007.06;7360077;19;20118;-56
2022/12/17 17:23:49;;;;;;;0.00;0.00;;;;;;;6.65;61.18;100999.31;7362831;19;20660;-57
2022/12/17 17:26:15;;;;;;;0.10;0.10;;;;;;;6.66;61.13;101010.53;7361459;19;20006;-58
2022/12/17 17:28:41;;;;;;;0.00;0.00;;;;;;;6.61;61.20;101007.09;7361876;19;20014;-58
2022/12/17 17:31:09;;;;;;;0.00;0.00;;;;;;;6.56;61.09;101014.03;7359645;19;20073;-58
2022/12/17 17:33:37;;;;;;;0.00;0.00;;;;;;;6.49;61.14;101007.97;7359921;19;20010;-57
2022/12/17 17:36:03;;;;;;;;;;;;;;;6.45;61.71;101008.84;7361103;19;20096;-58
2022/12/17 17:38:29;;;;;;;0.10;0.10;;;;;;;6.34;61.15;101002.81;7361350;19;19926;-58
2022/12/17 17:40:57;;;;;;;0.00;0.00;;;;;;;6.07;61.72;100967.34;7357862;19;21567;-57
2022/12/17 17:43:23;;;;;;;0.00;0.00;;;;;;;6.29;61.83;101004.53;7358465;19;20006;-57
2022/12/17 17:45:48;;;;;;;0.00;0.00;;;;;;;6.21;62.50;100996.75;7358222;19;21454;-56
2022/12/17 17:48:14;;;;;;;0.00;0.00;;;;;;;6.02;62.15;100969.94;7358336;19;20101;-57
2022/12/17 17:50:39;;;;;;;0.00;0.00;;;;;;;6.14;62.01;100995.03;7358954;19;20037;-57
2022/12/17 17:53:05;;;;;;;0.00;0.00;;;;;;;6.10;61.86;100988.09;7354663;19;20415;-57
2022/12/17 17:55:33;;;;;;;0.00;0.00;;;;;;;6.09;61.64;100989.84;7357078;19;20086;-58
2022/12/17 17:57:59;;;;;;;0.00;0.00;;;;;;;6.05;62.02;100987.25;7352396;19;20014;-57
2022/12/17 18:00:24;;;;;;;0.00;0.00;;;;;;;5.93;61.96;100970.81;7354409;19;20034;-57
2022/12/17 18:02:49;;;;;;;0.00;0.00;;;;;;;5.97;61.79;100977.72;7355927;19;20048;-58
2022/12/17 18:05:15;;;;;;;0.00;0.00;;;;;;;5.86;61.59;100969.03;7360397;19;20778;-58
2022/12/17 18:07:40;;;;;;;0.00;0.00;;;;;;;5.78;61.54;100960.41;7365023;19;20894;-57
2022/12/17 18:10:06;;;;;;;0.00;0.00;;;;;;;5.76;62.08;100964.72;7361738;19;20011;-58
2022/12/17 18:15:16;;;;;;;0.10;0.10;;;;;;;5.71;62.39;100972.47;7361158;19;20924;-58
2022/12/17 18:17:42;;;;;;;0.00;0.00;;;;;;;5.72;62.01;100981.09;7352620;19;21419;-56
2022/12/17 18:20:09;;;;;;;0.00;0.00;;;;;;;5.57;62.31;100960.34;7359273;19;20010;-57
2022/12/17 18:22:34;;;;;;;0.00;0.00;;;;;;;5.61;62.88;100972.47;7360692;19;20055;-56
2022/12/17 18:24:59;;;;;;;0.03;0.03;;;;;;;5.61;62.85;100982.81;7361691;19;20006;-55
2022/12/17 18:27:25;;;;;;;0.00;0.00;;;;;;;5.55;62.69;100973.31;7363386;19;20352;-55
2022/12/17 18:29:50;;;;;;;0.00;0.00;;;;;;;5.38;62.70;100964.66;7361345;19;20018;-56
2022/12/17 18:32:16;;;;;;;0.00;0.00;;;;;;;5.51;62.61;100991.44;7359731;19;20014;-58
2022/12/17 18:34:41;;;;;;;0.00;0.00;;;;;;;5.46;63.43;100987.09;7359254;19;20674;-57
2022/12/17 18:37:06;;;;;;;0.00;0.00;;;;;;;5.43;63.83;100975.88;7354970;19;20421;-57
2022/12/17 18:39:32;;;;;;;0.03;0.03;;;;;;;5.42;63.92;100993.16;7354227;19;20006;-58
2022/12/17 18:44:41;;;;;;;0.00;0.00;;;;;;;5.37;63.87;100994.88;7360812;19;20801;-57
2022/12/17 18:47:09;;;;;;;0.00;0.00;;;;;;;5.36;63.88;101003.47;7348541;19;20117;-56
2022/12/17 18:49:35;;;;;;;0.10;0.10;;;;;;;5.32;64.01;100996.56;7343011;19;20010;-57
2022/12/17 18:52:00;;;;;;;0.00;0.00;;;;;;;5.23;64.15;100990.50;7356928;19;20010;-57
2022/12/17 18:54:28;;;;;;;0.00;0.00;;;;;;;5.26;64.58;100991.34;7354670;19;20085;-58
2022/12/17 18:56:56;;;;;;;0.00;0.00;;;;;;;5.23;64.68;100987.91;7360560;19;20022;-57
2022/12/17 18:59:23;;;;;;;0.00;0.00;;;;;;;5.24;64.58;100993.09;7364702;19;20592;-57
2022/12/17 19:01:49;;;;;;;0.00;0.00;;;;;;;5.20;64.63;101002.56;7361502;19;20007;-58
2022/12/17 19:04:17;;;;;;;0.00;0.00;;;;;;;5.19;64.75;100997.38;7362821;19;20014;-57
2022/12/17 19:06:43;;;;;;;0.00;0.00;;;;;;;5.16;64.38;100989.59;7356278;19;20014;-58
2022/12/17 19:09:21;;;;;;;0.00;0.00;;;;;;;5.15;64.49;100995.63;7360580;19;20033;-56
2022/12/17 19:11:48;;;;;;;0.00;0.00;;;;;;;5.12;64.82;100999.09;7361361;19;20023;-58
2022/12/17 19:14:16;;;;;;;0.00;0.00;;;;;;;5.10;64.58;100995.59;7363770;19;20036;-57
2022/12/17 19:16:41;;;;;;;0.00;0.00;;;;;;;5.09;64.93;100995.63;7353049;19;20020;-58
2022/12/17 19:19:09;;;;;;;0.00;0.00;;;;;;;5.03;65.27;100993.00;7358956;19;20003;-56
2022/12/17 19:21:35;;;;;;;0.00;0.00;;;;;;;5.06;65.01;101003.34;7357315;19;20070;-57
2022/12/17 19:24:03;;;;;;;0.00;0.00;;;;;;;5.04;65.48;101005.06;7363153;19;20017;-56
2022/12/17 19:26:29;;;;;;;0.10;0.10;;;;;;;5.00;65.34;101003.31;7358031;19;20010;-58
2022/12/17 19:28:57;;;;;;;0.00;0.00;;;;;;;5.01;65.01;101005.91;7360248;19;21692;-57
2022/12/17 19:31:25;;;;;;;0.00;0.00;;;;;;;4.98;65.46;100995.56;7359719;19;20089;-58
2022/12/17 19:33:58;;;;;;;0.00;0.00;;;;;;;4.97;65.45;100988.66;7361238;19;20126;-57
2022/12/17 19:36:26;;;;;;;0.00;0.00;;;;;;;4.95;65.32;100992.94;7363465;19;20006;-58
2022/12/17 19:38:54;;;;;;;0.10;0.10;;;;;;;4.91;65.15;100979.13;7361248;19;20473;-57
2022/12/17 19:41:20;;;;;;;0.00;0.00;;;;;;;4.78;65.25;100974.75;7363294;19;20015;-57
2022/12/17 19:43:51;;;;;;;0.10;0.10;;;;;;;4.86;65.34;100985.13;7339519;19;20074;-57
2022/12/17 19:46:17;;;;;;;0.00;0.00;;;;;;;4.84;65.04;100992.91;7349622;19;20006;-57
2022/12/17 19:48:45;;;;;;;0.00;0.00;;;;;;;4.68;65.19;100966.09;7340368;19;20026;-56
2022/12/17 19:51:11;;;;;;;;;;;;;;;4.80;64.35;100991.16;7353838;19;20018;-58
2022/12/17 19:53:38;;;;;;;0.00;0.00;;;;;;;4.76;65.46;100988.53;7356291;19;19919;-57
2022/12/17 19:56:28;;;;;;;0.00;0.00;;;;;;;4.73;65.40;100991.97;7359678;19;20018;-57
2022/12/17 19:58:57;;;;;;;0.00;0.00;;;;;;;4.68;65.99;100985.91;7253787;19;2004346;-57
2022/12/17 20:01:24;;;;;;;0.00;0.00;;;;;;;4.67;66.08;100986.78;7358861;19;20020;-57
2022/12/17 20:03:51;;;;;;;0.00;0.00;;;;;;;4.68;66.03;100991.09;7351686;19;20014;-57
2022/12/17 20:06:19;;;;;;;0.07;0.07;;;;;;;4.65;66.39;100985.88;7359439;19;20470;-58
2022/12/17 20:08:44;;;;;;;0.00;0.00;;;;;;;4.57;66.60;100966.88;7359763;19;20475;-57
2022/12/17 20:14:01;;;;;;;0.03;0.03;;;;;;;4.65;66.39;100975.53;7257152;19;2004389;-58
2022/12/17 20:16:28;;;;;;;0.00;0.00;;;;;;;4.54;66.63;100959.09;7358939;19;20042;-57
2022/12/17 20:18:54;;;;;;;0.00;0.00;;;;;;;4.66;66.18;100982.44;7355616;19;20009;-58
2022/12/17 20:21:20;;;;;;;0.00;0.00;;;;;;;4.59;66.86;100971.19;7359267;19;20007;-57
2022/12/17 20:23:46;;;;;;;0.00;0.00;;;;;;;4.33;66.62;100923.63;7358886;19;20872;-57
2022/12/17 20:26:12;;;;;;;0.00;0.00;;;;;;;4.61;66.83;100958.25;7359331;19;20006;-57
2022/12/17 20:28:38;;;;;;;0.00;0.00;;;;;;;4.26;66.64;100899.47;7359157;19;20026;-58
2022/12/17 20:31:03;;;;;;;0.00;0.00;;;;;;;4.66;66.93;100967.81;7357223;19;20629;-58
2022/12/17 20:33:29;;;;;;;0.10;0.10;;;;;;;4.60;66.63;100951.38;7357887;19;20050;-58
2022/12/17 20:35:55;;;;;;;0.00;0.00;;;;;;;4.64;66.76;100955.72;7358847;19;20099;-57
2022/12/17 20:38:21;;;;;;;0.10;0.10;;;;;;;4.57;66.63;100930.69;7359028;19;20024;-57
2022/12/17 20:40:47;;;;;;;0.10;0.10;;;;;;;4.59;66.98;100939.28;7352200;19;20014;-57
2022/12/17 20:43:12;;;;;;;0.00;0.00;;;;;;;4.64;66.88;100947.94;7352537;19;20021;-58
2022/12/17 20:45:38;;;;;;;0.00;0.00;;;;;;;4.62;66.66;100942.78;7349728;19;20010;-58
2022/12/17 20:48:03;;;;;;;0.10;0.10;;;;;;;4.50;66.95;100928.91;7348102;19;20025;-58
2022/12/17 20:50:29;;;;;;;0.10;0.10;;;;;;;4.56;67.08;100935.00;7345492;19;20022;-57
2022/12/17 20:52:54;;;;;;;0.00;0.00;;;;;;;4.48;66.63;100920.28;7354785;19;20014;-58
2022/12/17 20:55:20;;;;;;;0.00;0.00;;;;;;;4.58;66.54;100932.41;7352878;19;20015;-57
2022/12/17 20:57:45;;;;;;;0.08;0.08;;;;;;;4.45;66.81;100902.16;7349038;19;20017;-58
2022/12/17 21:00:11;;;;;;;0.00;0.00;;;;;;;4.56;66.81;100923.75;7348301;19;20788;-58
2022/12/17 21:02:37;;;;;;;0.10;0.10;;;;;;;4.43;66.63;100915.94;7349897;19;20057;-57
2022/12/17 21:05:03;;;;;;;0.00;0.00;;;;;;;4.50;67.10;100923.72;7346774;19;20006;-58
2022/12/17 21:07:29;;;;;;;0.00;0.00;;;;;;;4.53;66.93;100939.28;7350330;19;20125;-57
2022/12/17 21:09:54;;;;;;;0.00;0.00;;;;;;;4.49;66.80;100922.88;7352614;19;20002;-57
2022/12/17 21:12:20;;;;;;;0.08;0.08;;;;;;;4.47;67.02;100929.75;7357841;19;20710;-58
2022/12/17 21:14:45;;;;;;;0.00;0.00;;;;;;;4.39;67.04;100916.75;7357575;19;20007;-56
2022/12/17 21:17:13;;;;;;;0.00;0.00;;;;;;;4.43;66.94;100934.03;7358133;19;20034;-56
2022/12/17 21:19:39;;;;;;;0.00;0.00;;;;;;;4.52;67.18;100942.72;7349496;19;20478;-58
2022/12/17 21:22:05;;;;;;;0.03;0.03;;;;;;;4.50;67.29;100942.69;7355912;19;20030;-57
2022/12/17 21:24:30;;;;;;;0.00;0.00;;;;;;;4.46;67.20;100937.47;7354259;19;20018;-58
2022/12/17 21:26:55;;;;;;;0.00;0.00;;;;;;;4.55;67.61;100955.66;7351151;19;20014;-58
2022/12/17 21:29:21;;;;;;;0.00;0.00;;;;;;;4.57;67.59;100961.72;7354823;19;20014;-56
2022/12/17 21:31:49;;;;;;;0.00;0.00;;;;;;;4.61;67.51;100963.44;7357756;19;20013;-57
2022/12/17 21:34:20;;;;;;;0.00;0.00;;;;;;;4.65;67.84;100960.88;7351002;19;20159;-57
2022/12/17 21:36:46;;;;;;;0.00;0.00;;;;;;;4.69;67.92;100951.41;7351893;19;20114;-57
2022/12/17 21:39:13;;;;;;;0.10;0.10;;;;;;;4.74;67.68;100960.06;7355380;19;20946;-57
2022/12/17 21:41:41;;;;;;;0.10;0.10;;;;;;;4.72;67.69;100951.44;7363388;19;20018;-57
2022/12/17 21:44:09;;;;;;;0.00;0.00;;;;;;;4.85;67.81;100962.72;7365001;19;20010;-57
2022/12/17 21:46:34;;;;;;;0.00;0.00;;;;;;;4.90;67.73;100967.03;7362885;19;20021;-57
2022/12/17 21:49:01;;;;;;;0.00;0.00;;;;;;;4.95;67.86;100974.84;7359971;19;20015;-58
2022/12/17 21:51:28;;;;;;;0.00;0.00;;;;;;;5.01;67.77;100972.25;7359986;19;20030;-57
2022/12/17 21:53:56;;;;;;;0.00;0.00;;;;;;;5.05;67.37;100971.44;7353180;19;21407;-58
2022/12/17 21:56:22;;;;;;;0.00;0.00;;;;;;;5.12;67.61;100982.66;7356065;19;20837;-57
2022/12/17 21:58:48;;;;;;;0.00;0.00;;;;;;;5.16;67.42;100976.66;7357427;19;20006;-57
2022/12/17 22:01:22;;;;;;;0.00;0.00;;;;;;;5.13;67.41;100964.56;7358056;19;20006;-56
2022/12/17 22:03:48;;;;;;;0.00;0.00;;;;;;;5.29;67.29;100974.97;7355484;19;20812;-56
2022/12/17 22:06:15;;;;;;;0.00;0.00;;;;;;;5.34;67.62;100970.69;7358178;19;20637;-58
2022/12/17 22:08:42;;;;;;;0.00;0.00;;;;;;;5.39;67.75;100961.19;7357586;19;20017;-57
2022/12/17 22:11:17;;;;;;;0.00;0.00;;;;;;;5.46;67.45;100963.78;7359021;19;20493;-57
2022/12/17 22:14:01;;;;;;;0.00;0.00;;;;;;;5.47;67.65;100965.53;7356856;19;20010;-58
2022/12/17 22:16:34;;;;;;;0.00;0.00;;;;;;;5.55;67.48;100962.09;7357988;19;20750;-58
2022/12/17 22:19:01;;;;;;;0.00;0.00;;;;;;;5.56;67.43;100953.47;7355099;19;20014;-58
2022/12/17 22:21:26;;;;;;;0.00;0.00;;;;;;;5.58;67.71;100962.97;7358377;19;20022;-58
2022/12/17 22:23:52;;;;;;;0.00;0.00;;;;;;;5.56;67.65;100943.09;7363849;19;20013;-57
2022/12/17 22:26:19;;;;;;;0.00;0.00;;;;;;;5.66;67.32;100948.28;7360322;19;20707;-57
2022/12/17 22:28:49;;;;;;;0.00;0.00;;;;;;;5.68;67.69;100954.34;7361526;19;20086;-57
2022/12/17 22:34:01;;;;;;;0.00;0.00;;;;;;;5.68;67.44;100937.94;7355757;19;20021;-58
2022/12/17 22:36:28;;;;;;;0.00;0.00;;;;;;;5.73;67.29;100936.22;7351651;19;20011;-58
2022/12/17 22:38:53;;;;;;;0.00;0.00;;;;;;;5.39;67.01;100874.00;7349485;19;20030;-59
2022/12/17 22:44:03;;;;;;;0.00;0.00;;;;;;;5.71;67.61;100937.94;7348777;19;20912;-59
2022/12/17 22:46:30;;;;;;;0.00;0.00;;;;;;;5.69;67.44;100934.50;7350247;19;20010;-57
2022/12/17 22:48:57;;;;;;;0.00;0.00;;;;;;;5.67;67.55;100923.25;7350135;19;20949;-58
2022/12/17 22:51:24;;;;;;;0.00;0.00;;;;;;;5.49;67.41;100899.94;7348046;19;20022;-58
2022/12/17 22:53:50;;;;;;;0.00;0.00;;;;;;;5.62;67.57;100924.97;7347574;19;20517;-61
2022/12/17 22:56:15;;;;;;;0.00;0.00;;;;;;;5.59;67.42;100925.84;7351913;19;20006;-58
2022/12/17 22:58:41;;;;;;;0.00;0.00;;;;;;;5.56;67.47;100932.72;7352475;19;20011;-58
2022/12/17 23:01:06;;;;;;;0.00;0.00;;;;;;;5.50;67.30;100928.41;7356210;19;20049;-58
2022/12/17 23:03:32;;;;;;;0.00;0.00;;;;;;;5.46;67.63;100927.53;7354503;19;20006;-58
2022/12/17 23:06:17;;;;;;;0.00;0.00;;;;;;;5.46;67.22;100922.34;7359763;19;20017;-58
2022/12/17 23:08:43;;;;;;;0.00;0.00;;;;;;;5.40;67.62;100911.13;7359914;19;20050;-58
2022/12/17 23:11:18;;;;;;;0.00;0.00;;;;;;;5.39;67.74;100907.69;7358901;19;22197;-56
2022/12/17 23:13:44;;;;;;;0.00;0.00;;;;;;;5.33;67.67;100902.50;7360582;19;20010;-58
2022/12/17 23:16:12;;;;;;;0.00;0.00;;;;;;;5.25;67.70;100911.97;7358680;19;21233;-58
2022/12/17 23:18:38;;;;;;;0.00;0.00;;;;;;;5.19;67.70;100907.63;7360944;19;20006;-57
2022/12/17 23:21:06;;;;;;;0.00;0.00;;;;;;;5.22;67.49;100911.97;7359334;19;20026;-57
2022/12/17 23:23:32;;;;;;;0.10;0.10;;;;;;;5.17;67.63;100903.28;7360414;19;20554;-58
2022/12/17 23:25:57;;;;;;;0.00;0.00;;;;;;;5.13;67.89;100894.69;7357453;19;20021;-58
2022/12/17 23:28:22;;;;;;;0.00;0.00;;;;;;;5.04;68.04;100880.84;7361877;19;20006;-58
2022/12/17 23:30:48;;;;;;;0.10;0.10;;;;;;;5.07;67.74;100897.25;7358508;19;20023;-55
2022/12/17 23:33:14;;;;;;;0.00;0.00;;;;;;;5.07;68.03;100880.84;7357912;19;20010;-58
2022/12/17 23:35:39;;;;;;;0.00;0.00;;;;;;;5.11;68.00;100882.56;7361957;19;20006;-59
2022/12/17 23:38:04;;;;;;;0.00;0.00;;;;;;;5.09;67.73;100869.63;7361065;19;20014;-58
2022/12/17 23:40:30;;;;;;;0.00;0.00;;;;;;;4.98;68.24;100854.97;7355570;19;20006;-59
2022/12/17 23:42:56;;;;;;;0.00;0.00;;;;;;;5.12;68.24;100873.94;7358495;19;20021;-58
2022/12/17 23:45:21;;;;;;;0.00;0.00;;;;;;;4.99;68.22;100852.34;7353961;19;20017;-58
2022/12/17 23:47:47;;;;;;;0.00;0.00;;;;;;;5.10;67.99;100871.34;7355755;19;20032;-58
2022/12/17 23:50:13;;;;;;;0.00;0.00;;;;;;;5.00;68.32;100837.69;7352385;19;20017;-58
2022/12/17 23:52:38;;;;;;;0.00;0.00;;;;;;;5.13;68.41;100860.16;7356876;19;20708;-59
2022/12/17 23:55:04;;;;;;;0.10;0.10;;;;;;;5.13;68.41;100844.63;7354953;19;20037;-57
2022/12/17 23:57:30;;;;;;;0.00;0.00;;;;;;;4.96;68.31;100826.47;7354586;19;20021;-58
2022/12/17 23:59:55;;;;;;;0.10;0.10;;;;;;;4.82;68.36;100786.78;7357724;19;20662;-58
